Custom Search

Airport METAR Reports

 

YMAV - Avalon Airport, Australia
Distance from station: 0 0km
Updated: 26/02/2018 00:50
Partly cloudy
Partly cloudy
 Wind from ESE
Wind: ESE 31 km/h, Gust: 50 km/h
Temperature: 17°C
Dew Point: 11°C
Humidity: 68%
Barometer: 1015 hPa
Clouds: Partly cloudy
Cloud details: Partly cloudy 914 m
2018/02/25 13:50 YMAV 251350Z AUTO 12017G27KT //// // SCT030 17/11 Q1015
YMML - Melbourne Intl A, Australia
Distance from station: NE 50km
Updated: 26/02/2018 00:30
Clear
Clear
 Wind from SSE
Wind: SSE 28 km/h
Temperature: 15°C
Dew Point: 10°C
Humidity: 72%
Barometer: 1014 hPa
Summary: Clear
Visibility: greater than 10 km
2018/02/25 13:30 YMML 251330Z 15015KT CAVOK 15/10 Q1014 NOSIG
YMEN - Melbourne/Essend, Australia
Distance from station: NE 51km
Updated: 26/02/2018 00:00
Clear
Clear
 Wind from SSE
Wind: SSE 22 km/h
Temperature: 16°C
Dew Point: 10°C
Humidity: 68%
Barometer: 1015 hPa
Clouds: Clear
Visibility: 10 km
2018/02/25 13:00 YMEN 251300Z AUTO 15012KT 9999 // NCD 16/10 Q1015
 
YWGT - Wangaratta Arp, Australia
Distance from station: NE 241km
Updated: 26/02/2018 00:00
Light drizzle, Mostly cloudy
Light drizzle, Mostly cloudy
 Wind from ESE
Wind: ESE 13 km/h
Temperature: 17°C
Dew Point: 12°C
Humidity: 73%
Barometer: 1012 hPa
Summary: Light Drizzle
Clouds: Mostly cloudy
Visibility: 10 km
Cloud details: Mostly cloudy 3018 m
Mostly cloudy 3505 m
2018/02/25 13:00 YWGT 251300Z AUTO 11007KT 9999 -DZ BKN099 BKN115 17/12 Q1012
YMAY - Albury Airport, Australia
Distance from station: NE 308km
Updated: 26/02/2018 00:57
Overcast
Overcast
 Wind from SSE
Wind: SSE 7 km/h
Temperature: 16°C
Dew Point: 14°C
Humidity: 88%
Barometer: 1012 hPa
Clouds: Overcast
Visibility: 10 km
Cloud details: Partly cloudy 640 m
Partly cloudy 732 m
Overcast 1402 m
2018/02/25 13:57 YMAY 251357Z AUTO 16004KT 9999 // SCT021 SCT024 OVC046 16/14 Q1012
YMTG - Mount Gambier, Australia
Distance from station: W 326km
Updated: 26/02/2018 00:00
Overcast
Overcast
 Wind from SE
Wind: SE 19 km/h
Temperature: 14°C
Dew Point: 7°C
Humidity: 63%
Barometer: 1017 hPa
Clouds: Overcast
Visibility: 10 km
Cloud details: Overcast 1067 m
2018/02/25 13:00 YMTG 251300Z AUTO 14010KT 9999 // OVC035 14/07 Q1017
 
YNAR - Narrandera, Australia
Distance from station: NNE 413km
Updated: 26/02/2018 00:00

 Wind from SW
Wind: SW 4 km/h
Temperature: 18°C
Dew Point: 7°C
Humidity: 49%
Barometer: 1010 hPa
2018/02/25 13:00 YNAR 251300Z AUTO 23002KT //// // ////// 18/07 Q1010
YSWG - Wagga Wagga(Cv/M, Australia
Distance from station: NE 418km
Updated: 26/02/2018 00:00
Overcast
Overcast
 Wind from S
Wind: S 24 km/h
Temperature: 18°C
Dew Point: 15°C
Humidity: 83%
Barometer: 1010 hPa
Clouds: Overcast
Visibility: 10 km
Cloud details: Overcast 1036 m
2018/02/25 13:00 YSWG 251300Z AUTO 17013KT 9999 // OVC034 18/15 Q1010
YCOM - Cooma Snowy Mtns, Australia
Distance from station: ENE 441km
Updated: 26/02/2018 00:30
Mostly cloudy
Mostly cloudy
 Wind from S
Wind: S 15 km/h
Temperature: 11°C
Dew Point: 11°C
Humidity: 100%
Barometer: 1015 hPa
Clouds: Mostly cloudy
Visibility: 5 km
Cloud details: Mostly cloudy 244 m
Mostly cloudy 427 m
Mostly cloudy 549 m
2018/02/25 13:30 YCOM 251330Z AUTO 18008KT 4500 // BKN008 BKN014 BKN018 11/11 Q1015
 
YGTH - Griffith Arpt, Australia
Distance from station: NNE 444km
Updated: 26/02/2018 00:00
Clear
Clear
 Wind from NW
Wind: NW 7 km/h
Temperature: 14°C
Dew Point: 5°C
Humidity: 55%
Barometer: 1009 hPa
Clouds: Clear
Visibility: 10 km
2018/02/25 13:00 YGTH 251300Z AUTO 31004KT 9999 // NCD 14/05 Q1009
YMLT - Launceston Airpo, Australia
Distance from station: SSE 451km
Updated: 26/02/2018 00:30
Clear
Clear
 Wind from S
Wind: S 20 km/h
Temperature: 10°C
Wind Chill: 7°C
Dew Point: 6°C
Humidity: 76%
Barometer: 1020 hPa
Clouds: Clear
Visibility: 10 km
2018/02/25 13:30 YMLT 251330Z AUTO 17011KT 9999 // NCD 10/06 Q1020 RF00.0/000.0
YMIA - Mildura Arpt, Australia
Distance from station: NNW 474km
Updated: 26/02/2018 00:00
Clear
Clear
 Wind from S
Wind: S 13 km/h
Temperature: 19°C
Dew Point: 3°C
Humidity: 35%
Barometer: 1012 hPa
Clouds: Clear
Visibility: 10 km
2018/02/25 13:00 YMIA 251300Z AUTO 17007KT 9999 // NCD 19/03 Q1012
 
YMER - Merimbula Arpt, Australia
Distance from station: ENE 494km
Updated: 26/02/2018 00:52
Overcast
Overcast
 Wind from WNW
Wind: WNW 7 km/h
Temperature: 15°C
Dew Point: 14°C
Humidity: 94%
Barometer: 1016 hPa
Clouds: Overcast
Visibility: 9 km
Cloud details: Mostly cloudy 1036 m
Mostly cloudy 1189 m
Overcast 1494 m
2018/02/25 13:52 YMER 251352Z AUTO 30004KT 260V320 9000 // BKN034 BKN039 OVC049 15/14 Q1016
YSCB - Canberra (civ/Mi, Australia
Distance from station: NE 518km
Updated: 26/02/2018 00:30
Light rain, Overcast
Light rain, Overcast
 Wind from SSE
Wind: SSE 17 km/h
Temperature: 15°C
Dew Point: 12°C
Humidity: 82%
Barometer: 1013 hPa
Summary: Light rain
Clouds: Overcast
Visibility: 10 km
Cloud details: Mostly cloudy 701 m
Overcast 823 m
2018/02/25 13:30 YSCB 251330Z AUTO 15009KT 9999 -RA BKN023 OVC027 15/12 Q1013
YMHB - Hobart/Tasmania, Australia
Distance from station: SSE 590km
Updated: 26/02/2018 00:30
Mostly cloudy
Mostly cloudy
 Wind from E
Wind: E 7 km/h
Temperature: 13°C
Dew Point: 5°C
Humidity: 59%
Barometer: 1021 hPa
Clouds: Mostly cloudy
Visibility: 10 km
Cloud details: Few Clouds 1097 m
Mostly cloudy 1280 m
2018/02/25 13:30 YMHB 251330Z 08004KT 9999 FEW036 BKN042 13/05 Q1021 RF00.0/000.0